TimeCST,TemperatureF,Dew PointF,Humidity,Sea Level PressureIn,VisibilityMPH,Wind Direction,Wind SpeedMPH,Gust SpeedMPH,PrecipitationIn,Events,Conditions,WindDirDegrees,DateUTC
12:53 AM,46.0,36.0,68,30.02,10.0,SE,6.9,-,N/A,,Overcast,140,2012-12-28 06:53:00
1:53 AM,46.9,37.0,68,30.00,10.0,SE,9.2,-,N/A,,Overcast,130,2012-12-28 07:53:00
2:53 AM,46.9,37.0,68,29.99,10.0,SE,10.4,-,N/A,,Overcast,140,2012-12-28 08:53:00
3:53 AM,46.9,37.9,71,29.95,10.0,SE,12.7,-,N/A,,Mostly Cloudy,140,2012-12-28 09:53:00
4:53 AM,46.9,42.1,83,29.93,6.0,SE,10.4,-,0.01,Rain,Rain,140,2012-12-28 10:53:00
5:53 AM,46.9,42.1,83,29.94,10.0,ESE,6.9,-,0.01,,Mostly Cloudy,110,2012-12-28 11:53:00
6:53 AM,48.0,43.0,83,29.94,10.0,ESE,6.9,-,0.00,Rain,Light Rain,110,2012-12-28 12:53:00
7:32 AM,46.4,44.6,93,29.92,8.0,NNE,5.8,-,0.02,Rain,Light Rain,30,2012-12-28 13:32:00
7:53 AM,46.9,44.1,90,29.92,8.0,ENE,6.9,-,0.02,Rain,Light Rain,60,2012-12-28 13:53:00
8:53 AM,46.9,44.1,90,29.93,4.0,East,9.2,-,0.03,Rain,Light Rain,80,2012-12-28 14:53:00
9:13 AM,46.4,44.6,93,29.89,5.0,East,10.4,-,0.01,Rain,Light Rain,100,2012-12-28 15:13:00
9:53 AM,48.0,46.0,93,29.92,3.0,ESE,8.1,-,0.13,Rain,Rain,110,2012-12-28 15:53:00
10:30 AM,48.2,46.4,93,29.89,2.5,ESE,9.2,-,0.12,Rain,Heavy Rain,120,2012-12-28 16:30:00
10:38 AM,48.2,46.4,93,29.88,2.0,ESE,8.1,-,0.16,Rain,Heavy Rain,120,2012-12-28 16:38:00
10:53 AM,50.0,48.9,96,29.89,3.0,SE,5.8,-,0.19,Rain,Rain,130,2012-12-28 16:53:00
12:35 PM,53.6,53.6,100,29.78,2.5,SE,9.2,-,0.06,Rain,Rain,140,2012-12-28 18:35:00
12:43 PM,53.6,53.6,100,29.77,4.0,SSE,8.1,-,0.08,Rain,Rain,150,2012-12-28 18:43:00
12:53 PM,55.0,53.1,93,29.79,4.0,SE,5.8,-,0.09,Rain,Light Rain,140,2012-12-28 18:53:00
1:01 PM,55.4,53.6,94,29.75,7.0,ESE,6.9,-,0.00,Rain,Light Rain,120,2012-12-28 19:01:00
1:53 PM,55.9,54.0,93,29.74,10.0,ESE,4.6,-,0.00,,Overcast,120,2012-12-28 19:53:00
2:53 PM,57.0,55.0,93,29.74,10.0,Calm,Calm,-,0.00,Rain,Light Rain,0,2012-12-28 20:53:00
3:04 PM,57.2,55.4,94,29.72,10.0,Calm,Calm,-,0.00,,Overcast,0,2012-12-28 21:04:00
3:13 PM,57.2,55.4,94,29.73,10.0,WNW,3.5,-,0.00,,Overcast,300,2012-12-28 21:13:00
3:30 PM,57.2,55.4,94,29.73,10.0,WNW,4.6,-,0.00,,Overcast,300,2012-12-28 21:30:00
3:53 PM,53.1,51.1,93,29.77,5.0,NW,9.2,-,0.00,,Overcast,310,2012-12-28 21:53:00
4:12 PM,48.2,48.2,100,29.77,2.5,WNW,11.5,-,N/A,,Overcast,300,2012-12-28 22:12:00
4:21 PM,48.2,46.4,93,29.77,1.0,NW,12.7,19.6,0.00,Rain,Light Rain,310,2012-12-28 22:21:00
4:53 PM,46.0,45.0,96,29.82,1.2,WNW,10.4,-,0.00,Rain,Light Rain,300,2012-12-28 22:53:00
5:12 PM,46.4,44.6,93,29.81,2.5,NW,11.5,16.1,0.01,Rain,Light Rain,310,2012-12-28 23:12:00
5:23 PM,44.6,44.6,100,29.82,3.0,NW,8.1,-,0.01,Rain,Light Rain,310,2012-12-28 23:23:00
5:53 PM,44.1,43.0,96,29.87,4.0,WNW,11.5,19.6,0.01,Rain,Light Rain,300,2012-12-28 23:53:00
6:53 PM,43.0,42.1,97,29.92,4.0,WNW,13.8,21.9,0.01,Rain,Light Rain,300,2012-12-29 00:53:00
7:38 PM,42.8,41.0,93,29.91,10.0,NW,11.5,17.3,0.00,,Overcast,310,2012-12-29 01:38:00
7:53 PM,43.0,41.0,93,29.95,10.0,NW,10.4,21.9,0.00,,Overcast,310,2012-12-29 01:53:00
8:03 PM,42.8,41.0,93,29.93,10.0,WNW,12.7,19.6,N/A,,Overcast,300,2012-12-29 02:03:00
8:26 PM,42.8,39.2,87,29.94,10.0,WNW,15.0,27.6,N/A,,Overcast,300,2012-12-29 02:26:00
8:53 PM,42.1,39.0,89,29.99,10.0,NW,15.0,26.5,N/A,,Overcast,310,2012-12-29 02:53:00
9:11 PM,42.8,39.2,87,29.98,10.0,NW,12.7,24.2,N/A,,Overcast,310,2012-12-29 03:11:00
9:45 PM,41.0,39.2,93,30.00,10.0,NW,9.2,19.6,N/A,,Overcast,310,2012-12-29 03:45:00
9:53 PM,41.0,37.9,89,30.03,10.0,NW,11.5,20.7,N/A,,Overcast,320,2012-12-29 03:53:00
10:02 PM,41.0,37.4,87,30.01,10.0,NW,15.0,20.7,N/A,,Overcast,310,2012-12-29 04:02:00
10:31 PM,39.2,35.6,87,30.02,10.0,NNW,10.4,18.4,N/A,,Overcast,330,2012-12-29 04:31:00
10:53 PM,39.9,36.0,86,30.06,10.0,NW,8.1,18.4,N/A,,Overcast,320,2012-12-29 04:53:00
11:12 PM,39.2,35.6,87,30.04,10.0,NW,10.4,-,N/A,,Overcast,310,2012-12-29 05:12:00
11:53 PM,39.9,37.0,89,30.07,10.0,NW,11.5,19.6,N/A,,Overcast,310,2012-12-29 05:53:00